createdAt,value
2022-09-04T00:02:09.816Z,15.54
2022-09-04T00:04:47.439Z,15.54
2022-09-04T00:07:23.098Z,15.55
2022-09-04T00:10:02.863Z,15.52
2022-09-04T00:12:36.636Z,15.51
2022-09-04T00:15:14.750Z,15.51
2022-09-04T00:17:49.563Z,15.51
2022-09-04T00:20:26.873Z,15.54
2022-09-04T00:23:01.140Z,15.55
2022-09-04T00:25:36.495Z,15.58
2022-09-04T00:28:13.170Z,15.61
2022-09-04T00:30:50.383Z,15.63
2022-09-04T00:33:23.688Z,15.68
2022-09-04T00:35:57.535Z,15.71
2022-09-04T00:38:35.488Z,15.73
2022-09-04T00:41:11.964Z,15.72
2022-09-04T00:44:14.497Z,15.72
2022-09-04T00:47:05.222Z,15.71
2022-09-04T00:49:57.543Z,15.71
2022-09-04T00:52:46.921Z,15.70
2022-09-04T00:55:27.671Z,15.70
2022-09-04T00:58:07.118Z,15.68
2022-09-04T01:00:36.712Z,15.66
2022-09-04T01:03:27.476Z,15.66
2022-09-04T01:06:13.802Z,15.63
2022-09-04T01:08:56.351Z,15.62
2022-09-04T01:11:34.018Z,15.61
2022-09-04T01:14:13.410Z,15.61
2022-09-04T01:16:48.341Z,15.59
2022-09-04T01:19:32.689Z,15.58
2022-09-04T01:22:14.931Z,15.55
2022-09-04T01:25:03.625Z,15.52
2022-09-04T01:27:40.463Z,15.50
2022-09-04T01:30:11.881Z,15.50
2022-09-04T01:32:48.798Z,15.50
2022-09-04T01:35:26.999Z,15.51
2022-09-04T01:38:04.649Z,15.50
2022-09-04T01:40:40.766Z,15.49
2022-09-04T01:43:14.626Z,15.48
2022-09-04T01:45:52.936Z,15.45
2022-09-04T01:48:26.227Z,15.43
2022-09-04T01:51:01.611Z,15.40
2022-09-04T01:53:32.986Z,15.36
2022-09-04T01:56:11.318Z,15.34
2022-09-04T01:58:47.759Z,15.30
2022-09-04T02:01:22.898Z,15.26
2022-09-04T02:03:57.361Z,15.25
2022-09-04T02:06:34.876Z,15.21
2022-09-04T02:09:22.190Z,15.20
2022-09-04T02:11:57.230Z,15.14
2022-09-04T02:14:37.587Z,15.10
2022-09-04T02:17:12.708Z,15.06
2022-09-04T02:20:00.618Z,15.01
2022-09-04T02:22:37.118Z,14.98
2022-09-04T02:25:09.909Z,14.94
2022-09-04T02:27:45.676Z,14.91
2022-09-04T02:30:20.643Z,14.88
2022-09-04T02:32:56.746Z,14.87
2022-09-04T02:35:32.156Z,14.83
2022-09-04T02:38:09.490Z,14.81
2022-09-04T02:40:45.718Z,14.78
2022-09-04T02:43:35.761Z,14.77
2022-09-04T02:46:11.945Z,14.76
2022-09-04T02:48:49.954Z,14.76
2022-09-04T02:51:29.836Z,14.74
2022-09-04T02:54:04.760Z,14.71
2022-09-04T02:56:43.747Z,14.69
2022-09-04T02:59:37.827Z,14.67
2022-09-04T03:02:18.553Z,14.64
2022-09-04T03:04:54.111Z,14.61
2022-09-04T03:07:28.495Z,14.58
2022-09-04T03:10:03.358Z,14.55
2022-09-04T03:12:38.327Z,14.50
2022-09-04T03:15:16.180Z,14.48
2022-09-04T03:17:53.500Z,14.44
2022-09-04T03:20:25.673Z,14.41
2022-09-04T03:23:00.586Z,14.39
2022-09-04T03:25:48.455Z,14.37
2022-09-04T03:28:23.046Z,14.34
2022-09-04T03:30:54.556Z,14.31
2022-09-04T03:33:30.163Z,14.30
2022-09-04T03:36:03.495Z,14.29
2022-09-04T03:38:39.207Z,14.27
2022-09-04T03:41:18.210Z,14.28
2022-09-04T03:44:00.753Z,14.27
2022-09-04T03:46:40.948Z,14.29
2022-09-04T03:49:19.912Z,14.31
2022-09-04T03:52:00.215Z,14.34
2022-09-04T03:54:42.465Z,14.38
2022-09-04T03:57:24.923Z,14.38
2022-09-04T04:00:04.685Z,14.40
2022-09-04T04:02:59.832Z,14.43
2022-09-04T04:05:41.347Z,14.44
2022-09-04T04:08:28.447Z,14.45
2022-09-04T04:11:03.275Z,14.46
2022-09-04T04:13:43.650Z,14.47
2022-09-04T04:16:27.741Z,14.48
2022-09-04T04:19:01.622Z,14.47
2022-09-04T04:21:55.589Z,14.45
2022-09-04T04:24:39.269Z,14.45
2022-09-04T04:27:23.582Z,14.42
2022-09-04T04:29:56.392Z,14.41
2022-09-04T04:32:38.699Z,14.39
2022-09-04T04:35:16.487Z,14.36
2022-09-04T04:37:59.405Z,14.36
2022-09-04T04:40:43.363Z,14.37
2022-09-04T04:43:16.923Z,14.37
2022-09-04T04:45:55.354Z,14.38
2022-09-04T04:49:04.370Z,14.39
2022-09-04T04:52:15.933Z,14.44
2022-09-04T04:54:57.119Z,14.46
2022-09-04T04:57:35.562Z,14.49
2022-09-04T05:00:11.739Z,14.50
2022-09-04T05:02:51.961Z,14.51
2022-09-04T05:05:41.929Z,14.54
2022-09-04T05:08:17.846Z,14.56
2022-09-04T05:10:51.310Z,14.57
2022-09-04T05:13:27.246Z,14.60
2022-09-04T05:16:09.365Z,14.64
2022-09-04T05:18:46.119Z,14.68
2022-09-04T05:21:20.389Z,14.74
2022-09-04T05:23:54.855Z,14.77
2022-09-04T05:26:32.754Z,14.81
2022-09-04T05:29:05.877Z,14.85
2022-09-04T05:31:43.165Z,14.89
2022-09-04T05:34:17.247Z,14.94
2022-09-04T05:36:49.665Z,15.02
2022-09-04T05:39:27.835Z,15.07
2022-09-04T05:42:35.280Z,15.16
2022-09-04T05:45:10.196Z,15.20
2022-09-04T05:47:46.562Z,15.26
2022-09-04T05:50:37.574Z,15.34
2022-09-04T05:53:30.701Z,15.44
2022-09-04T05:56:28.282Z,15.51
2022-09-04T05:59:10.156Z,15.58
2022-09-04T06:01:59.458Z,15.65
2022-09-04T06:04:44.818Z,15.73
2022-09-04T06:07:17.449Z,15.80
2022-09-04T06:10:00.693Z,15.88
2022-09-04T06:12:44.630Z,15.98
2022-09-04T06:15:25.645Z,16.06
2022-09-04T06:18:05.396Z,16.15
2022-09-04T06:20:42.836Z,16.26
2022-09-04T06:23:29.767Z,16.40
2022-09-04T06:26:31.747Z,16.54
2022-09-04T06:29:08.383Z,16.71
2022-09-04T06:32:10.352Z,16.89
2022-09-04T06:34:54.986Z,17.08
2022-09-04T06:37:33.145Z,17.27
2022-09-04T06:40:13.895Z,17.50
2022-09-04T06:42:53.080Z,17.75
2022-09-04T06:45:28.053Z,18.02
2022-09-04T06:48:06.338Z,18.37
2022-09-04T06:50:47.251Z,18.91
2022-09-04T06:53:36.086Z,19.63
2022-09-04T06:56:14.159Z,20.20
2022-09-04T06:59:02.660Z,20.75
2022-09-04T07:01:40.598Z,21.38
2022-09-04T07:04:18.937Z,22.14
2022-09-04T07:07:04.307Z,23.16
2022-09-04T07:09:37.429Z,24.12
2022-09-04T07:12:29.956Z,24.91
2022-09-04T07:15:19.220Z,25.71
2022-09-04T07:18:01.496Z,26.57
2022-09-04T07:20:37.238Z,27.41
2022-09-04T07:23:27.662Z,27.95
2022-09-04T07:26:05.623Z,28.26
2022-09-04T07:28:44.526Z,28.62
2022-09-04T07:31:18.269Z,29.25
2022-09-04T07:33:54.868Z,29.96
2022-09-04T07:36:32.961Z,30.56
2022-09-04T07:39:12.360Z,31.09
2022-09-04T07:41:49.305Z,31.43
2022-09-04T07:44:26.627Z,31.71
2022-09-04T07:47:01.387Z,32.05
2022-09-04T07:49:35.389Z,32.44
2022-09-04T07:52:11.691Z,32.73
2022-09-04T07:54:54.692Z,33.12
2022-09-04T07:57:34.873Z,33.62
2022-09-04T08:00:08.661Z,34.18
2022-09-04T08:03:02.894Z,34.91
2022-09-04T08:05:34.319Z,35.40
2022-09-04T08:08:35.593Z,35.80
2022-09-04T08:11:38.066Z,36.24
2022-09-04T08:14:22.573Z,36.36
2022-09-04T08:17:00.121Z,36.42
2022-09-04T08:19:43.039Z,36.66
2022-09-04T08:22:13.750Z,36.91
2022-09-04T08:25:00.988Z,37.32
2022-09-04T08:27:44.875Z,37.76
2022-09-04T08:30:18.717Z,38.20
2022-09-04T08:33:03.083Z,38.55
2022-09-04T08:35:35.856Z,38.51
2022-09-04T08:38:15.712Z,38.62
2022-09-04T08:41:15.606Z,39.05
2022-09-04T08:44:14.139Z,39.22
2022-09-04T08:47:04.391Z,39.31
2022-09-04T08:49:56.041Z,39.63
2022-09-04T08:52:46.345Z,39.87
2022-09-04T08:55:39.155Z,39.89
2022-09-04T08:58:24.690Z,39.63
2022-09-04T09:01:23.751Z,38.99
2022-09-04T09:04:11.963Z,38.69
2022-09-04T09:07:10.011Z,38.88
2022-09-04T09:10:02.947Z,39.09
2022-09-04T09:13:23.470Z,39.49
2022-09-04T09:16:09.368Z,39.46
2022-09-04T09:18:41.502Z,39.18
2022-09-04T09:21:23.721Z,39.32
2022-09-04T09:24:22.842Z,39.54
2022-09-04T09:27:02.385Z,39.67
2022-09-04T09:29:46.572Z,39.68
2022-09-04T09:32:46.012Z,39.73
2022-09-04T09:35:26.380Z,39.69
2022-09-04T09:38:20.010Z,39.99
2022-09-04T09:41:20.115Z,40.04
2022-09-04T09:44:09.305Z,39.85
2022-09-04T09:46:59.326Z,39.76
2022-09-04T09:50:01.911Z,39.59
2022-09-04T09:53:00.510Z,39.59
2022-09-04T09:56:08.619Z,39.69
2022-09-04T09:59:13.957Z,39.56
2022-09-04T10:02:16.529Z,39.06
2022-09-04T10:05:13.611Z,38.36
2022-09-04T10:08:10.599Z,37.68
2022-09-04T10:11:01.966Z,36.88
2022-09-04T10:13:55.631Z,35.63
2022-09-04T10:16:39.353Z,34.58
2022-09-04T10:19:28.945Z,33.57
2022-09-04T10:22:17.366Z,32.54
2022-09-04T10:25:16.311Z,31.62
2022-09-04T10:27:57.703Z,30.85
2022-09-04T10:30:27.792Z,30.24
2022-09-04T10:33:26.560Z,29.57
2022-09-04T10:36:16.300Z,29.06
2022-09-04T10:39:03.472Z,28.72
2022-09-04T10:41:53.646Z,28.44
2022-09-04T10:44:47.956Z,28.25
2022-09-04T10:47:28.100Z,28.14
2022-09-04T10:50:15.509Z,28.04
2022-09-04T10:53:03.830Z,27.95
2022-09-04T10:55:39.087Z,27.84
2022-09-04T10:58:39.892Z,27.73
2022-09-04T11:01:36.939Z,27.64
2022-09-04T11:04:27.213Z,27.68
2022-09-04T11:07:28.865Z,27.78
2022-09-04T11:10:30.974Z,27.85
2022-09-04T11:13:29.776Z,27.88
2022-09-04T11:16:35.896Z,27.98
2022-09-04T11:19:26.556Z,28.12
2022-09-04T11:22:20.470Z,28.24
2022-09-04T11:25:19.957Z,28.31
2022-09-04T11:28:33.822Z,28.36
2022-09-04T11:31:16.091Z,28.42
2022-09-04T11:34:06.455Z,28.45
2022-09-04T11:36:52.606Z,28.23
2022-09-04T11:39:43.701Z,27.94
2022-09-04T11:42:31.069Z,27.72
2022-09-04T11:45:34.691Z,27.66
2022-09-04T11:48:24.395Z,27.74
2022-09-04T11:51:16.530Z,27.86
2022-09-04T11:54:01.672Z,28.00
2022-09-04T11:56:49.550Z,28.04
2022-09-04T11:59:39.399Z,28.03
2022-09-04T12:02:35.091Z,27.95
2022-09-04T12:05:24.840Z,27.85
2022-09-04T12:08:07.839Z,27.79
2022-09-04T12:10:50.166Z,27.77
2022-09-04T12:13:44.927Z,27.69
2022-09-04T12:16:28.890Z,27.67
2022-09-04T12:19:33.272Z,27.70
2022-09-04T12:22:17.419Z,27.73
2022-09-04T12:25:03.784Z,27.77
2022-09-04T12:27:56.063Z,27.78
2022-09-04T12:30:26.354Z,27.82
2022-09-04T12:33:25.052Z,27.90
2022-09-04T12:36:29.921Z,27.92
2022-09-04T12:39:17.783Z,27.91
2022-09-04T12:41:54.478Z,27.89
2022-09-04T12:44:33.126Z,27.81
2022-09-04T12:47:14.092Z,27.70
2022-09-04T12:50:01.890Z,27.63
2022-09-04T12:52:41.328Z,27.61
2022-09-04T12:55:19.350Z,27.64
2022-09-04T12:58:00.875Z,27.73
2022-09-04T13:00:48.594Z,27.82
2022-09-04T13:03:26.461Z,27.96
2022-09-04T13:06:04.550Z,28.04
2022-09-04T13:08:45.627Z,28.08
2022-09-04T13:11:27.815Z,28.03
2022-09-04T13:14:07.620Z,27.93
2022-09-04T13:16:43.167Z,27.81
2022-09-04T13:19:20.016Z,27.73
2022-09-04T13:22:08.989Z,27.66
2022-09-04T13:24:51.285Z,27.64
2022-09-04T13:27:36.499Z,27.66
2022-09-04T13:30:09.556Z,27.69
2022-09-04T13:33:02.830Z,27.71
2022-09-04T13:35:42.668Z,27.76
2022-09-04T13:38:40.396Z,27.79
2022-09-04T13:41:30.511Z,27.86
2022-09-04T13:44:45.720Z,27.93
2022-09-04T13:47:21.014Z,27.95
2022-09-04T13:49:56.670Z,27.98
2022-09-04T13:52:30.553Z,27.98
2022-09-04T13:55:04.683Z,27.97
2022-09-04T13:57:39.020Z,27.99
2022-09-04T14:00:12.106Z,28.02
2022-09-04T14:02:44.848Z,28.02
2022-09-04T14:05:16.504Z,27.97
2022-09-04T14:07:49.238Z,27.98
2022-09-04T14:10:22.339Z,27.97
2022-09-04T14:13:04.975Z,28.01
2022-09-04T14:15:51.589Z,28.07
2022-09-04T14:18:45.356Z,28.10
2022-09-04T14:21:19.973Z,28.14
2022-09-04T14:23:54.370Z,28.16
2022-09-04T14:26:31.623Z,28.20
2022-09-04T14:29:07.031Z,28.24
2022-09-04T14:31:46.872Z,28.28
2022-09-04T14:34:28.928Z,28.26
2022-09-04T14:37:08.224Z,28.17
2022-09-04T14:39:40.910Z,28.13
2022-09-04T14:42:33.571Z,28.11
2022-09-04T14:45:14.494Z,28.04
2022-09-04T14:47:47.410Z,27.93
2022-09-04T14:50:20.496Z,27.80
2022-09-04T14:52:52.281Z,27.72
2022-09-04T14:55:27.654Z,27.67
2022-09-04T14:58:02.046Z,27.65
2022-09-04T15:00:34.132Z,27.62
2022-09-04T15:03:09.297Z,27.57
2022-09-04T15:05:51.560Z,27.47
2022-09-04T15:08:34.644Z,27.41
2022-09-04T15:11:08.991Z,27.40
2022-09-04T15:13:50.773Z,27.41
2022-09-04T15:16:28.607Z,27.39
2022-09-04T15:19:03.623Z,27.43
2022-09-04T15:21:41.619Z,27.46
2022-09-04T15:24:26.551Z,27.45
2022-09-04T15:27:01.486Z,27.44
2022-09-04T15:29:35.951Z,27.40
2022-09-04T15:32:09.430Z,27.38
2022-09-04T15:34:44.112Z,27.34
2022-09-04T15:37:22.207Z,27.30
2022-09-04T15:39:58.217Z,27.24
2022-09-04T15:42:37.532Z,27.18
2022-09-04T15:45:13.239Z,27.11
2022-09-04T15:47:53.310Z,27.06
2022-09-04T15:50:24.794Z,27.00
2022-09-04T15:53:02.595Z,26.93
2022-09-04T15:55:34.457Z,26.89
2022-09-04T15:58:08.618Z,26.85
2022-09-04T16:00:41.444Z,26.84
2022-09-04T16:03:15.781Z,26.78
2022-09-04T16:05:47.567Z,26.72
2022-09-04T16:08:25.170Z,26.66
2022-09-04T16:11:01.605Z,26.60
2022-09-04T16:13:38.741Z,26.52
2022-09-04T16:16:13.727Z,26.49
2022-09-04T16:18:52.283Z,26.41
2022-09-04T16:21:32.173Z,26.32
2022-09-04T16:24:09.184Z,26.26
2022-09-04T16:26:40.137Z,26.20
2022-09-04T16:29:17.467Z,26.17
2022-09-04T16:31:54.395Z,26.14
2022-09-04T16:34:26.120Z,26.11
2022-09-04T16:37:01.995Z,26.06
2022-09-04T16:39:47.654Z,26.03
2022-09-04T16:42:23.626Z,26.00
2022-09-04T16:44:56.426Z,25.97
2022-09-04T16:47:31.652Z,25.97
2022-09-04T16:50:13.423Z,25.96
2022-09-04T16:52:48.308Z,25.94
2022-09-04T16:55:31.339Z,25.92
2022-09-04T16:58:15.516Z,25.90
2022-09-04T17:01:13.728Z,25.84
2022-09-04T17:04:04.125Z,25.79
2022-09-04T17:06:47.802Z,25.73
2022-09-04T17:09:23.493Z,25.69
2022-09-04T17:11:58.204Z,25.64
2022-09-04T17:14:33.849Z,25.57
2022-09-04T17:17:29.863Z,25.51
2022-09-04T17:20:04.377Z,25.47
2022-09-04T17:29:02.240Z,25.42
2022-09-04T17:29:17.547Z,25.30
2022-09-04T17:29:17.549Z,25.37
2022-09-04T17:31:45.684Z,25.23
2022-09-04T17:40:32.087Z,25.14
2022-09-04T17:40:37.324Z,25.04
2022-09-04T17:40:49.878Z,24.93
2022-09-04T17:43:23.422Z,24.78
2022-09-04T17:46:04.605Z,24.68
2022-09-04T17:48:35.442Z,24.56
2022-09-04T17:51:07.352Z,24.45
2022-09-04T17:53:39.539Z,24.33
2022-09-04T17:56:14.730Z,24.20
2022-09-04T17:58:46.649Z,24.09
2022-09-04T18:01:23.009Z,23.95
2022-09-04T18:04:20.330Z,23.83
2022-09-04T18:06:55.877Z,23.70
2022-09-04T18:09:29.744Z,23.59
2022-09-04T18:12:11.145Z,23.47
2022-09-04T18:14:45.357Z,23.35
2022-09-04T18:17:23.637Z,23.21
2022-09-04T18:19:55.343Z,23.11
2022-09-04T18:22:33.511Z,23.02
2022-09-04T18:25:15.974Z,22.90
2022-09-04T18:28:06.226Z,22.79
2022-09-04T18:37:11.211Z,22.68
2022-09-04T18:37:24.340Z,22.41
2022-09-04T18:37:26.041Z,22.54
2022-09-04T18:39:40.646Z,22.30
2022-09-04T18:48:37.568Z,22.21
2022-09-04T18:50:38.909Z,22.03
2022-09-04T18:50:48.707Z,22.11
2022-09-04T18:51:19.322Z,21.95
2022-09-04T18:53:54.268Z,21.87
2022-09-04T18:56:27.046Z,21.79
2022-09-04T18:59:01.018Z,21.73
2022-09-04T19:01:37.453Z,21.63
2022-09-04T19:04:31.980Z,21.57
2022-09-04T19:07:08.320Z,21.51
2022-09-04T19:10:03.780Z,21.48
2022-09-04T19:12:46.842Z,21.41
2022-09-04T19:15:36.722Z,21.33
2022-09-04T19:18:11.279Z,21.26
2022-09-04T19:20:47.536Z,21.20
2022-09-04T19:23:25.716Z,21.09
2022-09-04T19:25:57.010Z,21.01
2022-09-04T19:28:28.861Z,20.91
2022-09-04T19:31:01.481Z,20.82
2022-09-04T19:33:39.066Z,20.74
2022-09-04T19:36:13.511Z,20.66
2022-09-04T19:45:56.529Z,20.53
2022-09-04T19:46:12.707Z,20.46
2022-09-04T19:47:30.927Z,20.40
2022-09-04T19:53:17.802Z,20.35
2022-09-04T19:53:31.899Z,20.27
2022-09-04T19:56:04.138Z,20.20
2022-09-04T19:58:40.119Z,20.14
2022-09-04T20:01:17.610Z,20.07
2022-09-04T20:03:52.817Z,20.05
2022-09-04T20:06:25.282Z,20.00
2022-09-04T20:08:59.253Z,19.97
2022-09-04T20:11:36.516Z,19.95
2022-09-04T20:14:15.043Z,19.90
2022-09-04T20:16:57.021Z,19.88
2022-09-04T20:19:28.928Z,19.87
2022-09-04T20:22:02.905Z,19.87
2022-09-04T20:24:36.403Z,19.85
2022-09-04T20:27:15.861Z,19.82
2022-09-04T20:29:54.488Z,19.82
2022-09-04T20:32:28.505Z,19.78
2022-09-04T20:35:13.169Z,19.77
2022-09-04T20:37:48.780Z,19.75
2022-09-04T20:40:35.364Z,19.73
2022-09-04T20:43:19.947Z,19.71
2022-09-04T20:49:53.753Z,19.69
2022-09-04T20:52:42.762Z,19.66
2022-09-04T20:52:59.018Z,19.62
2022-09-04T20:54:56.047Z,19.59
2022-09-04T21:02:12.870Z,19.55
2022-09-04T21:03:23.853Z,19.53
2022-09-04T21:03:29.399Z,19.54
2022-09-04T21:06:10.697Z,19.51
2022-09-04T21:08:48.438Z,19.50
2022-09-04T21:11:39.655Z,19.50
2022-09-04T21:14:15.941Z,19.44
2022-09-04T21:17:34.948Z,19.43
2022-09-04T21:21:00.023Z,19.39
2022-09-04T21:23:46.382Z,19.32
2022-09-04T21:26:30.233Z,19.25
2022-09-04T21:29:35.694Z,19.20
2022-09-04T21:32:32.040Z,19.17
2022-09-04T21:35:09.365Z,19.16
2022-09-04T21:37:44.744Z,19.15
2022-09-04T21:40:50.761Z,19.15
2022-09-04T21:43:48.981Z,19.11
2022-09-04T21:46:29.379Z,19.10
2022-09-04T21:49:19.655Z,19.10
2022-09-04T21:52:10.643Z,19.08
2022-09-04T21:57:28.803Z,19.08
2022-09-04T22:02:42.616Z,19.05
2022-09-04T22:02:43.254Z,19.09
2022-09-04T22:04:28.915Z,19.01
2022-09-04T22:10:15.529Z,19.00
2022-09-04T22:13:31.305Z,18.97
2022-09-04T22:13:40.554Z,18.93
2022-09-04T22:16:02.464Z,18.91
2022-09-04T22:18:43.171Z,18.88
2022-09-04T22:21:25.753Z,18.86
2022-09-04T22:24:18.565Z,18.83
2022-09-04T22:27:18.327Z,18.82
2022-09-04T22:29:52.901Z,18.85
2022-09-04T22:33:07.139Z,18.90
2022-09-04T22:35:58.678Z,18.97
2022-09-04T22:38:54.570Z,19.03
2022-09-04T22:41:37.762Z,19.08
2022-09-04T22:44:18.235Z,19.12
2022-09-04T22:47:31.200Z,19.15
2022-09-04T22:50:48.755Z,19.16
2022-09-04T22:53:47.332Z,19.14
2022-09-04T22:56:24.818Z,19.11
2022-09-04T22:59:25.756Z,19.09
2022-09-04T23:02:18.520Z,19.07
2022-09-04T23:05:01.235Z,19.06
2022-09-04T23:13:48.231Z,19.03
2022-09-04T23:13:52.085Z,18.99
2022-09-04T23:14:06.532Z,18.98
2022-09-04T23:16:49.403Z,18.99
2022-09-04T23:26:28.296Z,18.98
2022-09-04T23:26:45.678Z,18.95
2022-09-04T23:26:49.804Z,18.94
2022-09-04T23:29:41.198Z,18.97
2022-09-04T23:32:32.231Z,18.99
2022-09-04T23:35:15.769Z,19.00
2022-09-04T23:38:15.397Z,18.99
2022-09-04T23:40:47.101Z,18.98
2022-09-04T23:43:55.267Z,18.97
2022-09-04T23:46:54.616Z,18.97
2022-09-04T23:49:53.532Z,18.91
2022-09-04T23:52:29.321Z,18.88
2022-09-04T23:55:25.404Z,18.87
2022-09-04T23:57:58.606Z,18.84
